createdAt,value
2022-11-23T00:00:40.675Z,15.95
2022-11-23T00:03:07.393Z,15.07
2022-11-23T00:05:34.901Z,14.05
2022-11-23T00:08:02.185Z,15.35
2022-11-23T00:10:28.824Z,14.70
2022-11-23T00:12:55.428Z,15.90
2022-11-23T00:15:22.396Z,12.50
2022-11-23T00:17:49.177Z,13.57
2022-11-23T00:20:16.156Z,13.68
2022-11-23T00:22:42.933Z,13.40
2022-11-23T00:25:09.726Z,14.45
2022-11-23T00:27:36.682Z,12.93
2022-11-23T00:30:03.846Z,12.68
2022-11-23T00:32:30.584Z,13.07
2022-11-23T00:34:57.289Z,13.57
2022-11-23T00:37:24.159Z,11.98
2022-11-23T00:39:51.026Z,14.45
2022-11-23T00:42:17.750Z,14.70
2022-11-23T00:44:44.708Z,14.70
2022-11-23T00:47:11.351Z,14.02
2022-11-23T00:49:38.069Z,13.75
2022-11-23T00:52:05.169Z,14.55
2022-11-23T00:54:31.768Z,13.93
2022-11-23T00:56:58.318Z,14.30
2022-11-23T00:59:24.914Z,14.80
2022-11-23T01:01:51.665Z,14.00
2022-11-23T01:04:18.547Z,14.35
2022-11-23T01:06:45.489Z,13.10
2022-11-23T01:09:14.777Z,15.15
2022-11-23T01:11:42.179Z,14.65
2022-11-23T01:14:09.210Z,14.88
2022-11-23T01:16:39.264Z,13.50
2022-11-23T01:19:11.984Z,12.50
2022-11-23T01:21:39.597Z,13.88
2022-11-23T01:24:13.052Z,12.93
2022-11-23T01:26:40.897Z,12.60
2022-11-23T01:29:08.168Z,13.10
2022-11-23T01:31:34.868Z,11.95
2022-11-23T01:34:04.882Z,12.82
2022-11-23T01:36:33.760Z,13.02
2022-11-23T01:39:01.984Z,12.48
2022-11-23T01:41:35.420Z,14.55
2022-11-23T01:44:31.248Z,13.18
2022-11-23T01:47:00.559Z,12.70
2022-11-23T01:49:49.929Z,12.82
2022-11-23T01:52:20.546Z,12.70
2022-11-23T01:54:53.737Z,12.05
2022-11-23T01:57:23.339Z,12.85
2022-11-23T01:59:51.656Z,13.90
2022-11-23T02:02:18.547Z,13.38
2022-11-23T02:04:48.994Z,12.10
2022-11-23T02:07:17.735Z,12.90
2022-11-23T02:09:45.816Z,13.20
2022-11-23T02:12:14.129Z,13.43
2022-11-23T02:14:42.222Z,13.50
2022-11-23T02:17:09.131Z,15.48
2022-11-23T02:19:54.417Z,14.00
2022-11-23T02:22:39.450Z,13.88
2022-11-23T02:25:13.731Z,13.30
2022-11-23T02:27:46.726Z,15.77
2022-11-23T02:30:14.038Z,15.55
2022-11-23T02:32:41.936Z,15.75
2022-11-23T02:35:11.609Z,14.27
2022-11-23T02:37:40.249Z,14.90
2022-11-23T02:40:27.307Z,15.38
2022-11-23T02:42:54.037Z,12.77
2022-11-23T02:45:23.904Z,13.10
2022-11-23T02:47:50.562Z,13.20
2022-11-23T02:50:17.279Z,14.55
2022-11-23T02:52:44.012Z,13.77
2022-11-23T02:55:11.052Z,13.70
2022-11-23T02:57:37.682Z,12.52
2022-11-23T03:00:05.361Z,13.23
2022-11-23T03:02:31.980Z,16.08
2022-11-23T03:04:58.609Z,15.90
2022-11-23T03:07:25.256Z,14.80
2022-11-23T03:09:52.365Z,15.35
2022-11-23T03:12:19.078Z,10.50
2022-11-23T03:14:45.759Z,17.33
2022-11-23T03:17:12.507Z,18.25
2022-11-23T03:19:39.117Z,15.93
2022-11-23T03:22:06.036Z,15.70
2022-11-23T03:24:32.748Z,16.83
2022-11-23T03:26:59.639Z,15.68
2022-11-23T03:29:26.624Z,13.05
2022-11-23T03:31:54.122Z,15.07
2022-11-23T03:34:20.885Z,14.48
2022-11-23T03:36:47.608Z,16.17
2022-11-23T03:39:14.322Z,14.55
2022-11-23T03:41:41.009Z,13.80
2022-11-23T03:44:07.991Z,12.93
2022-11-23T03:46:34.758Z,12.85
2022-11-23T03:49:01.469Z,11.98
2022-11-23T03:51:28.195Z,11.65
2022-11-23T03:53:55.025Z,11.70
2022-11-23T03:56:21.944Z,11.93
2022-11-23T03:58:48.778Z,11.90
2022-11-23T04:01:15.941Z,11.57
2022-11-23T04:03:42.614Z,10.60
2022-11-23T04:06:09.703Z,10.75
2022-11-23T04:08:36.340Z,10.48
2022-11-23T04:11:02.965Z,10.90
2022-11-23T04:13:29.577Z,10.48
2022-11-23T04:15:56.296Z,10.18
2022-11-23T04:18:23.043Z,12.43
2022-11-23T04:20:50.037Z,13.68
2022-11-23T04:23:16.766Z,12.27
2022-11-23T04:25:44.070Z,13.20
2022-11-23T04:28:10.824Z,13.98
2022-11-23T04:30:37.801Z,14.02
2022-11-23T04:33:04.538Z,14.07
2022-11-23T04:35:31.340Z,14.30
2022-11-23T04:37:58.059Z,14.95
2022-11-23T04:40:25.229Z,14.30
2022-11-23T04:42:51.859Z,13.85
2022-11-23T04:45:18.473Z,15.40
2022-11-23T04:47:45.130Z,15.02
2022-11-23T04:50:12.066Z,13.73
2022-11-23T04:52:38.962Z,14.27
2022-11-23T04:55:06.304Z,14.10
2022-11-23T04:57:33.015Z,15.13
2022-11-23T05:00:00.170Z,15.65
2022-11-23T05:02:26.734Z,15.57
2022-11-23T05:04:53.755Z,15.93
2022-11-23T05:07:20.576Z,17.05
2022-11-23T05:09:47.210Z,15.85
2022-11-23T05:12:13.882Z,15.15
2022-11-23T05:14:40.488Z,16.23
2022-11-23T05:17:07.169Z,15.93
2022-11-23T05:19:34.266Z,17.58
2022-11-23T05:22:01.580Z,17.10
2022-11-23T05:24:28.435Z,19.30
2022-11-23T05:26:56.442Z,15.75
2022-11-23T05:29:23.272Z,15.63
2022-11-23T05:31:49.943Z,15.70
2022-11-23T05:34:16.669Z,28.55
2022-11-23T05:36:43.280Z,15.27
2022-11-23T05:39:10.225Z,15.52
2022-11-23T05:41:36.830Z,14.50
2022-11-23T05:44:03.463Z,11.55
2022-11-23T05:46:30.336Z,16.13
2022-11-23T05:48:57.067Z,14.60
2022-11-23T05:51:23.820Z,14.52
2022-11-23T05:53:50.974Z,15.38
2022-11-23T05:56:17.826Z,14.70
2022-11-23T05:58:44.627Z,13.95
2022-11-23T06:01:11.459Z,13.63
2022-11-23T06:03:38.318Z,14.43
2022-11-23T06:06:06.777Z,15.55
2022-11-23T06:08:33.682Z,14.90
2022-11-23T06:11:01.930Z,15.65
2022-11-23T06:13:28.560Z,17.55
2022-11-23T06:15:55.340Z,15.52
2022-11-23T06:18:22.073Z,15.35
2022-11-23T06:20:48.799Z,16.60
2022-11-23T06:23:15.546Z,16.60
2022-11-23T06:25:42.232Z,15.90
2022-11-23T06:28:09.097Z,16.05
2022-11-23T06:30:35.912Z,17.25
2022-11-23T06:33:05.011Z,17.50
2022-11-23T06:35:31.730Z,18.80
2022-11-23T06:37:58.437Z,19.27
2022-11-23T06:40:25.615Z,18.35
2022-11-23T06:42:57.648Z,18.35
2022-11-23T06:45:24.980Z,16.55
2022-11-23T06:47:54.786Z,18.48
2022-11-23T06:50:21.648Z,19.08
2022-11-23T06:52:49.330Z,18.85
2022-11-23T06:55:16.280Z,20.33
2022-11-23T06:57:43.200Z,17.48
2022-11-23T07:00:11.379Z,16.65
2022-11-23T07:02:38.019Z,16.60
2022-11-23T07:05:04.906Z,13.23
2022-11-23T07:07:32.345Z,12.80
2022-11-23T07:10:01.653Z,10.10
2022-11-23T07:12:32.313Z,9.43
2022-11-23T07:14:59.146Z,9.02
2022-11-23T07:17:25.796Z,10.70
2022-11-23T07:19:52.430Z,11.35
2022-11-23T07:22:19.135Z,10.52
2022-11-23T07:24:47.002Z,10.40
2022-11-23T07:27:13.876Z,9.80
2022-11-23T07:29:40.730Z,10.07
2022-11-23T07:32:08.569Z,8.93
2022-11-23T07:34:35.189Z,9.77
2022-11-23T07:37:02.407Z,8.88
2022-11-23T07:39:49.210Z,9.63
2022-11-23T07:42:32.367Z,10.30
2022-11-23T07:45:01.898Z,11.38
2022-11-23T07:47:28.841Z,11.55
2022-11-23T07:49:55.632Z,11.48
2022-11-23T07:52:22.540Z,11.90
2022-11-23T07:54:49.491Z,11.60
2022-11-23T07:57:18.298Z,11.50
2022-11-23T07:59:44.902Z,12.38
2022-11-23T08:02:14.913Z,11.18
2022-11-23T08:04:41.562Z,11.10
2022-11-23T08:07:08.312Z,12.63
2022-11-23T08:09:35.083Z,11.50
2022-11-23T08:12:01.737Z,11.77
2022-11-23T08:14:28.395Z,18.30
2022-11-23T08:16:55.409Z,13.02
2022-11-23T08:19:22.124Z,16.92
2022-11-23T08:21:48.740Z,14.23
2022-11-23T08:24:15.539Z,13.98
2022-11-23T08:26:42.413Z,14.13
2022-11-23T08:29:09.334Z,14.30
2022-11-23T08:31:36.753Z,14.45
2022-11-23T08:34:03.915Z,13.63
2022-11-23T08:36:30.778Z,15.25
2022-11-23T08:38:57.365Z,14.15
2022-11-23T08:41:24.035Z,15.45
2022-11-23T08:43:51.495Z,14.82
2022-11-23T08:46:18.452Z,17.48
2022-11-23T08:48:45.336Z,19.48
2022-11-23T08:51:11.986Z,18.73
2022-11-23T08:53:39.983Z,17.70
2022-11-23T08:56:08.465Z,16.45
2022-11-23T08:58:36.813Z,14.45
2022-11-23T09:01:08.789Z,16.13
2022-11-23T09:03:35.555Z,19.00
2022-11-23T09:06:02.488Z,21.65
2022-11-23T09:08:29.260Z,20.08
2022-11-23T09:11:03.251Z,21.30
2022-11-23T09:13:30.479Z,25.10
2022-11-23T09:16:02.365Z,20.42
2022-11-23T09:18:33.416Z,24.45
2022-11-23T09:21:03.892Z,21.58
2022-11-23T09:23:31.118Z,16.88
2022-11-23T09:26:02.445Z,12.57
2022-11-23T09:28:29.761Z,10.67
2022-11-23T09:30:57.504Z,11.35
2022-11-23T09:33:25.116Z,11.18
2022-11-23T09:36:00.177Z,10.88
2022-11-23T09:38:51.636Z,10.43
2022-11-23T09:41:41.610Z,8.80
2022-11-23T09:44:36.040Z,8.57
2022-11-23T09:47:27.834Z,9.23
2022-11-23T09:50:03.330Z,8.82
2022-11-23T09:52:31.463Z,8.45
2022-11-23T09:55:03.533Z,7.40
2022-11-23T09:57:34.403Z,10.18
2022-11-23T10:00:22.300Z,8.32
2022-11-23T10:02:49.474Z,8.38
2022-11-23T10:05:20.095Z,8.80
2022-11-23T10:07:55.045Z,7.53
2022-11-23T10:10:38.550Z,7.57
2022-11-23T10:13:23.905Z,6.82
2022-11-23T10:16:03.152Z,7.40
2022-11-23T10:18:47.131Z,7.10
2022-11-23T10:21:19.611Z,6.30
2022-11-23T10:24:01.431Z,6.65
2022-11-23T10:26:49.949Z,6.50
2022-11-23T10:29:27.272Z,6.50
2022-11-23T10:31:57.221Z,5.45
2022-11-23T10:34:51.371Z,3.88
2022-11-23T10:37:18.745Z,4.55
2022-11-23T10:39:45.407Z,4.68
2022-11-23T10:42:23.660Z,4.00
2022-11-23T10:44:51.813Z,5.30
2022-11-23T10:47:48.316Z,4.78
2022-11-23T10:50:25.862Z,5.65
2022-11-23T10:52:59.629Z,3.80
2022-11-23T10:55:31.576Z,1.48
2022-11-23T10:57:58.980Z,1.27
2022-11-23T11:00:30.881Z,0.68
2022-11-23T11:02:59.586Z,0.80
2022-11-23T11:05:53.430Z,0.75
2022-11-23T11:08:18.893Z,0.65
2022-11-23T11:10:57.070Z,0.88
2022-11-23T11:13:32.681Z,0.75
2022-11-23T11:16:05.390Z,0.93
2022-11-23T11:18:34.972Z,0.98
2022-11-23T11:21:19.529Z,0.47
2022-11-23T11:23:59.227Z,0.70
2022-11-23T11:26:28.871Z,0.73
2022-11-23T11:28:57.832Z,0.68
2022-11-23T11:31:55.430Z,0.75
2022-11-23T11:34:46.358Z,0.50
2022-11-23T11:37:39.637Z,0.70
2022-11-23T11:40:37.115Z,0.50
2022-11-23T11:43:19.215Z,0.38
2022-11-23T11:46:13.581Z,0.90
2022-11-23T11:48:46.433Z,0.75
2022-11-23T11:51:14.825Z,1.23
2022-11-23T11:54:15.775Z,0.77
2022-11-23T11:56:46.415Z,0.98
2022-11-23T11:59:29.997Z,1.75
2022-11-23T12:02:25.374Z,0.60
2022-11-23T12:05:05.720Z,0.68
2022-11-23T12:07:41.536Z,0.95
2022-11-23T12:10:36.780Z,0.85
2022-11-23T12:13:03.826Z,0.70
2022-11-23T12:15:55.676Z,1.08
2022-11-23T12:18:38.181Z,0.60
2022-11-23T12:21:14.744Z,1.00
2022-11-23T12:23:59.718Z,1.20
2022-11-23T12:27:12.224Z,0.60
2022-11-23T12:30:15.821Z,0.73
2022-11-23T12:33:01.316Z,1.00
2022-11-23T12:35:28.044Z,0.88
2022-11-23T12:38:17.024Z,0.80
2022-11-23T12:41:00.275Z,1.98
2022-11-23T12:43:36.697Z,1.38
2022-11-23T12:46:35.846Z,0.73
2022-11-23T12:49:38.801Z,0.60
2022-11-23T12:52:24.270Z,1.02
2022-11-23T12:55:19.238Z,0.73
2022-11-23T12:58:10.451Z,0.50
2022-11-23T13:00:59.718Z,0.50
2022-11-23T13:03:47.725Z,0.77
2022-11-23T13:06:29.437Z,0.77
2022-11-23T13:09:28.379Z,0.45
2022-11-23T13:12:33.977Z,0.55
2022-11-23T13:15:07.691Z,0.80
2022-11-23T13:17:37.241Z,0.55
2022-11-23T13:20:30.665Z,0.55
2022-11-23T13:22:58.599Z,0.70
2022-11-23T13:25:30.015Z,0.60
2022-11-23T13:28:05.602Z,0.55
2022-11-23T13:31:07.262Z,0.60
2022-11-23T13:33:31.729Z,1.00
2022-11-23T13:36:09.553Z,0.65
2022-11-23T13:38:40.457Z,6.45
2022-11-23T13:41:39.633Z,0.80
2022-11-23T13:44:28.545Z,1.13
2022-11-23T13:47:18.758Z,1.05
2022-11-23T13:49:51.507Z,1.00
2022-11-23T13:52:21.216Z,0.98
2022-11-23T13:55:03.822Z,1.00
2022-11-23T13:57:34.118Z,0.93
2022-11-23T14:00:38.175Z,2.10
2022-11-23T14:03:52.235Z,0.75
2022-11-23T14:06:36.608Z,0.82
2022-11-23T14:09:13.748Z,1.05
2022-11-23T14:12:09.228Z,0.90
2022-11-23T14:14:48.342Z,0.93
2022-11-23T14:17:39.982Z,0.88
2022-11-23T14:20:06.747Z,0.50
2022-11-23T14:23:07.585Z,0.65
2022-11-23T14:26:03.658Z,0.60
2022-11-23T14:28:48.510Z,0.70
2022-11-23T14:31:27.477Z,1.00
2022-11-23T14:34:32.476Z,0.93
2022-11-23T14:37:20.830Z,0.80
2022-11-23T14:40:12.482Z,1.02
2022-11-23T14:42:45.893Z,1.20
2022-11-23T14:45:15.055Z,0.70
2022-11-23T14:47:41.809Z,1.13
2022-11-23T14:50:29.522Z,0.80
2022-11-23T14:52:59.057Z,0.60
2022-11-23T14:55:28.744Z,0.60
2022-11-23T14:58:02.327Z,0.88
2022-11-23T15:00:35.741Z,1.08
2022-11-23T15:06:17.335Z,0.90
2022-11-23T15:08:56.333Z,1.63
2022-11-23T15:11:27.642Z,1.60
2022-11-23T15:14:04.655Z,1.93
2022-11-23T15:16:39.969Z,1.55
2022-11-23T15:19:39.059Z,1.40
2022-11-23T15:22:05.813Z,2.40
2022-11-23T15:24:32.960Z,5.50
2022-11-23T15:27:09.519Z,1.40
2022-11-23T15:29:40.045Z,1.80
2022-11-23T15:32:34.221Z,1.73
2022-11-23T15:35:07.043Z,1.50
2022-11-23T15:37:41.126Z,2.45
2022-11-23T15:40:13.850Z,2.75
2022-11-23T15:42:41.089Z,1.63
2022-11-23T15:45:39.257Z,1.27
2022-11-23T15:48:11.457Z,1.13
2022-11-23T15:50:59.142Z,1.42
2022-11-23T15:53:29.368Z,1.67
2022-11-23T15:56:00.980Z,1.13
2022-11-23T15:58:28.665Z,1.10
2022-11-23T16:01:13.124Z,0.95
2022-11-23T16:03:39.882Z,1.27
2022-11-23T16:06:12.560Z,0.95
2022-11-23T16:08:41.037Z,1.05
2022-11-23T16:11:29.900Z,1.08
2022-11-23T16:14:11.604Z,1.25
2022-11-23T16:16:44.062Z,1.02
2022-11-23T16:19:25.560Z,1.00
2022-11-23T16:22:01.771Z,1.30
2022-11-23T16:24:30.572Z,1.23
2022-11-23T16:26:57.689Z,1.25
2022-11-23T16:29:27.458Z,1.65
2022-11-23T16:31:57.463Z,1.10
2022-11-23T16:34:24.777Z,1.23
2022-11-23T16:36:52.017Z,2.05
2022-11-23T16:39:18.744Z,2.20
2022-11-23T16:41:45.709Z,1.30
2022-11-23T16:44:12.351Z,1.10
2022-11-23T16:46:43.514Z,1.25
2022-11-23T16:49:19.508Z,0.88
2022-11-23T16:51:56.287Z,3.00
2022-11-23T16:54:25.413Z,8.18
2022-11-23T16:56:52.982Z,1.40
2022-11-23T16:59:20.156Z,1.38
2022-11-23T17:01:53.871Z,1.40
2022-11-23T17:04:22.625Z,4.20
2022-11-23T17:06:49.776Z,2.22
2022-11-23T17:09:16.339Z,3.00
2022-11-23T17:11:46.325Z,3.28
2022-11-23T17:14:18.566Z,3.92
2022-11-23T17:16:46.339Z,3.58
2022-11-23T17:19:18.539Z,6.43
2022-11-23T17:24:12.996Z,3.72
2022-11-23T17:26:46.771Z,3.58
2022-11-23T17:29:19.053Z,3.70
2022-11-23T17:34:14.312Z,4.25
2022-11-23T17:36:43.357Z,3.72
2022-11-23T17:39:24.683Z,4.47
2022-11-23T17:41:52.707Z,4.10
2022-11-23T17:44:19.360Z,3.22
2022-11-23T17:46:47.517Z,3.45
2022-11-23T17:49:17.984Z,4.95
2022-11-23T17:51:44.951Z,9.13
2022-11-23T17:54:12.910Z,4.35
2022-11-23T17:56:39.920Z,3.67
2022-11-23T17:59:09.718Z,4.47
2022-11-23T18:01:36.838Z,4.88
2022-11-23T18:04:04.907Z,4.03
2022-11-23T18:06:31.964Z,4.35
2022-11-23T18:08:58.615Z,3.58
2022-11-23T18:11:25.631Z,2.95
2022-11-23T18:13:52.634Z,2.55
2022-11-23T18:16:21.214Z,2.78
2022-11-23T18:18:49.347Z,3.63
2022-11-23T18:21:16.607Z,4.63
2022-11-23T18:23:44.233Z,4.75
2022-11-23T18:26:19.212Z,5.00
2022-11-23T18:28:46.701Z,4.95
2022-11-23T18:31:16.425Z,6.40
2022-11-23T18:33:43.919Z,6.05
2022-11-23T18:36:11.490Z,5.93
2022-11-23T18:38:39.467Z,5.35
2022-11-23T18:41:06.982Z,4.60
2022-11-23T18:43:33.874Z,4.65
2022-11-23T18:46:00.769Z,4.45
2022-11-23T18:48:27.938Z,5.07
2022-11-23T18:50:55.014Z,4.00
2022-11-23T18:53:21.681Z,3.60
2022-11-23T18:55:48.395Z,4.18
2022-11-23T18:58:16.350Z,3.72
2022-11-23T19:00:43.362Z,5.75
2022-11-23T19:03:10.289Z,4.82
2022-11-23T19:05:37.312Z,3.70
2022-11-23T19:08:07.160Z,4.13
2022-11-23T19:10:37.184Z,2.65
2022-11-23T19:13:06.132Z,3.30
2022-11-23T19:15:33.538Z,4.68
2022-11-23T19:18:00.817Z,2.97
2022-11-23T19:20:29.304Z,2.17
2022-11-23T19:22:56.455Z,2.05
2022-11-23T19:25:23.462Z,1.63
2022-11-23T19:27:51.593Z,1.67
2022-11-23T19:30:18.570Z,2.03
2022-11-23T19:33:11.750Z,2.03
2022-11-23T19:35:38.681Z,5.38
2022-11-23T19:38:05.696Z,5.10
2022-11-23T19:40:32.708Z,6.30
2022-11-23T19:42:59.493Z,6.05
2022-11-23T19:45:26.299Z,6.47
2022-11-23T19:47:53.183Z,6.93
2022-11-23T19:50:20.043Z,7.30
2022-11-23T19:53:11.282Z,6.07
2022-11-23T19:55:33.800Z,5.53
2022-11-23T19:58:00.615Z,4.63
2022-11-23T20:00:27.668Z,5.10
2022-11-23T20:02:54.427Z,4.90
2022-11-23T20:05:22.004Z,5.95
2022-11-23T20:07:49.091Z,6.18
2022-11-23T20:10:17.521Z,6.25
2022-11-23T20:12:44.739Z,7.13
2022-11-23T20:15:11.497Z,6.20
2022-11-23T20:17:39.725Z,6.47
2022-11-23T20:20:07.242Z,7.18
2022-11-23T20:22:33.951Z,7.75
2022-11-23T20:25:01.026Z,7.35
2022-11-23T20:27:28.108Z,6.53
2022-11-23T20:29:54.954Z,6.53
2022-11-23T20:32:21.859Z,8.20
2022-11-23T20:34:48.894Z,8.43
2022-11-23T20:37:15.497Z,8.10
2022-11-23T20:39:42.417Z,7.35
2022-11-23T20:42:09.269Z,7.75
2022-11-23T20:44:37.443Z,6.68
2022-11-23T20:47:04.584Z,6.78
2022-11-23T20:49:33.088Z,7.32
2022-11-23T20:52:02.020Z,5.97
2022-11-23T20:54:29.219Z,6.05
2022-11-23T20:56:58.206Z,6.65
2022-11-23T20:59:25.081Z,5.50
2022-11-23T21:01:52.359Z,5.22
2022-11-23T21:04:19.093Z,3.72
2022-11-23T21:06:45.685Z,2.30
2022-11-23T21:09:12.541Z,2.95
2022-11-23T21:11:57.669Z,2.47
2022-11-23T21:14:27.429Z,2.88
2022-11-23T21:16:57.187Z,1.95
2022-11-23T21:19:39.724Z,1.67
2022-11-23T21:22:11.955Z,2.05
2022-11-23T21:27:06.859Z,2.13
2022-11-23T21:29:34.115Z,1.58
2022-11-23T21:32:01.574Z,2.10
2022-11-23T21:34:29.544Z,1.35
2022-11-23T21:36:57.303Z,2.00
2022-11-23T21:39:24.501Z,4.85
2022-11-23T21:41:53.534Z,7.90
2022-11-23T21:44:22.108Z,9.65
2022-11-23T21:46:49.098Z,12.25
2022-11-23T21:49:15.726Z,14.73
2022-11-23T21:51:43.739Z,15.63
2022-11-23T21:54:14.180Z,12.52
2022-11-23T21:56:42.809Z,38.05
2022-11-23T21:59:09.886Z,31.20
2022-11-23T22:01:37.726Z,10.45
2022-11-23T22:04:08.767Z,8.68
2022-11-23T22:06:36.648Z,10.18
2022-11-23T22:09:05.106Z,9.80
2022-11-23T22:11:33.674Z,8.88
2022-11-23T22:14:06.352Z,9.50
2022-11-23T22:16:38.141Z,10.80
2022-11-23T22:19:06.062Z,10.30
2022-11-23T22:21:36.179Z,11.43
2022-11-23T22:24:04.288Z,10.20
2022-11-23T22:26:31.021Z,10.32
2022-11-23T22:29:02.428Z,11.98
2022-11-23T22:31:31.219Z,12.23
2022-11-23T22:33:57.821Z,11.23
2022-11-23T22:36:24.893Z,12.25
2022-11-23T22:39:01.396Z,12.40
2022-11-23T22:41:29.921Z,12.05
2022-11-23T22:43:57.361Z,12.15
2022-11-23T22:46:25.184Z,11.85
2022-11-23T22:48:53.518Z,11.50
2022-11-23T22:51:23.773Z,11.25
2022-11-23T22:53:58.507Z,53.58
2022-11-23T22:56:26.315Z,31.55
2022-11-23T22:58:53.590Z,23.20
2022-11-23T23:01:22.900Z,14.88
2022-11-23T23:03:56.944Z,14.45
2022-11-23T23:06:25.748Z,13.02
2022-11-23T23:08:57.894Z,14.95
2022-11-23T23:11:26.109Z,13.98
2022-11-23T23:13:54.537Z,13.95
2022-11-23T23:16:21.657Z,11.43
2022-11-23T23:18:48.581Z,12.68
2022-11-23T23:21:17.765Z,12.77
2022-11-23T23:23:46.653Z,11.90
2022-11-23T23:26:16.073Z,11.13
2022-11-23T23:28:43.358Z,12.05
2022-11-23T23:31:12.782Z,11.35
2022-11-23T23:33:40.031Z,11.80
2022-11-23T23:36:12.320Z,12.25
2022-11-23T23:41:07.844Z,10.90
2022-11-23T23:43:35.082Z,11.40
2022-11-23T23:46:04.042Z,11.35
2022-11-23T23:48:35.519Z,12.32
2022-11-23T23:51:10.682Z,12.50
2022-11-23T23:53:38.116Z,12.48
2022-11-23T23:56:17.294Z,12.13
2022-11-23T23:58:44.660Z,12.73
